METAR Data
IDs: Format: Raw Decoded Include TAF

Data at: 0246 UTC 18 Jun 2019

PFNO 180056Z AUTO 08018G21KT 10SM CLR 20/03 A2972 RMK AO2 SLP064 T02000033
PFNO 172356Z AUTO 06019G29KT 10SM CLR 19/02 A2972 RMK AO2 PK WND 06029/2347 SLP064 T01890017 10194 20150 55000
PFNO 172256Z AUTO 05019G26KT 9SM CLR 19/M01 A2972 RMK AO2 PK WND 07029/2228 WSHFT 2150 SLP064 T01891006
PFNO 172210Z AUTO 07021G25KT 10SM CLR 19/M03 A2972 RMK AO2 WSHFT 2150
PFNO 172156Z AUTO 06019G24KT 10SM CLR 19/M02 A2972 RMK AO2 PK WND 03029/2119 SLP063 T01941022
PFNO 172056Z AUTO 02016G23KT 10SM CLR 18/M02 A2972 RMK AO2 PK WND 02031/2012 SLP064 T01831022 55008
PFNO 171956Z AUTO 01018G25KT 10SM CLR 17/01 A2972 RMK AO2 PK WND 01030/1906 SLP062 T01720006
PFNO 171856Z AUTO 02022G28KT 10SM CLR 17/02 A2973 RMK AO2 PK WND 03028/1853 SLP067 T01670017
PFNO 171756Z AUTO 36019G24KT 10SM CLR 16/02 A2975 RMK AO2 PK WND 02027/1739 SLP073 T01610022 10167 20150 58011
PFNO 171656Z AUTO 01013KT 10SM CLR 16/04 A2977 RMK AO2 PK WND 36027/1620 SLP080 T01560044
PFNO 171556Z AUTO 36016G19KT 10SM CLR 16/06 A2976 RMK AO2 SLP078 T01560056
PFNO 171456Z AUTO 33011G19KT 10SM CLR 17/06 A2978 RMK AO2 SLP084 T01670056 56004
PFNO 171356Z AUTO 35009KT 10SM CLR 15/06 A2978 RMK AO2 SLP084 T01500061
PFNO 171256Z AUTO 03015KT 10SM CLR 16/06 A2979 RMK AO2 SLP087 T01560061
PFNO 171156Z AUTO 01014KT 10SM CLR 16/06 A2979 RMK AO2 SLP088 T01560056 10211 20150 51002
PFNO 171056Z AUTO 02008KT 10SM CLR 16/06 A2979 RMK AO2 SLP087 T01560056
PFNO 170956Z AUTO 05006KT 10SM CLR 16/04 A2979 RMK AO2 SLP088 T01610044
PFNO 170856Z AUTO 02007KT 10SM CLR 18/04 A2979 RMK AO2 SLP086 T01780044 402280106 53004
PFNO 170756Z AUTO 01007KT 10SM CLR 19/04 A2978 RMK AO2 SLP084 T01940044
PFNO 170656Z AUTO 35004KT 10SM CLR 21/07 A2977 RMK AO2 SLP081 T02060072
PFNO 170556Z AUTO 29012KT 10SM CLR 21/08 A2977 RMK AO2 SLP082 T02060078 10228 20200 56012
PFNO 170456Z AUTO 29014KT 10SM CLR 22/07 A2978 RMK AO2 SLP085 T02170067
PFNO 170356Z AUTO 29016KT 10SM CLR 22/05 A2979 RMK AO2 SLP089 T02170050
PFNO 170256Z AUTO 29016KT 10SM CLR 22/05 A2981 RMK AO2 SLP094 T02220050 56012
PFNO 170156Z AUTO 29014KT 10SM CLR 22/06 A2981 RMK AO2 SLP095 T02220056
PFNO 170056Z AUTO 29012KT 9SM CLR 22/05 A2983 RMK AO2 SLP099 T02220050
PFNO 162356Z AUTO 29015KT 10SM CLR 22/06 A2984 RMK AO2 SLP105 T02220056 10222 20172 56011
PFNO 162256Z AUTO 29015G19KT 10SM CLR 22/05 A2986 RMK AO2 SLP110 T02170050
PFNO 162156Z AUTO 31007KT 270V330 10SM CLR 21/05 A2986 RMK AO2 SLP112 T02110050
PFNO 162056Z AUTO 29011KT 10SM BKN065 20/06 A2988 RMK AO2 SLP116 T02000056 56008
PFNO 161956Z AUTO 36004KT 10SM CLR 20/06 A2988 RMK AO2 SLP118 T02000056
PFNO 161856Z AUTO 04004KT 10SM CLR 19/06 A2989 RMK AO2 SLP121 T01890061
PFNO 161756Z AUTO 01003KT 10SM CLR 17/06 A2990 RMK AO2 SLP125 T01720056 10172 20106 56003
PFNO 161656Z AUTO 03004KT 10SM CLR 16/07 A2991 RMK AO2 SLP126 T01560072
PFNO 161556Z AUTO 06006KT 10SM CLR 14/08 A2990 RMK AO2 SLP126 T01440078
PFNO 161456Z AUTO 05005KT 10SM CLR 12/08 A2991 RMK AO2 SLP128 T01220078 55001